sensor_id;sensor_type;location;lat;lon;timestamp;pressure;altitude;pressure_sealevel;temperature
9119;BMP180;4594;50.994;7.126;2023-03-22T00:01:32;100225.00;;;15.40
9119;BMP180;4594;50.994;7.126;2023-03-22T00:03:59;100220.00;;;15.40
9119;BMP180;4594;50.994;7.126;2023-03-22T00:06:25;100192.00;;;15.50
9119;BMP180;4594;50.994;7.126;2023-03-22T00:08:52;100225.00;;;15.50
9119;BMP180;4594;50.994;7.126;2023-03-22T00:11:21;100214.00;;;15.50
9119;BMP180;4594;50.994;7.126;2023-03-22T00:13:48;100216.00;;;15.50
9119;BMP180;4594;50.994;7.126;2023-03-22T00:16:17;100214.00;;;15.50
9119;BMP180;4594;50.994;7.126;2023-03-22T00:18:43;100211.00;;;15.50
9119;BMP180;4594;50.994;7.126;2023-03-22T00:21:14;100209.00;;;15.50
9119;BMP180;4594;50.994;7.126;2023-03-22T00:23:41;100204.00;;;15.50
9119;BMP180;4594;50.994;7.126;2023-03-22T00:26:09;100203.00;;;15.50
9119;BMP180;4594;50.994;7.126;2023-03-22T00:28:35;100189.00;;;15.50
9119;BMP180;4594;50.994;7.126;2023-03-22T00:31:02;100188.00;;;15.50
9119;BMP180;4594;50.994;7.126;2023-03-22T00:33:30;100179.00;;;15.50
9119;BMP180;4594;50.994;7.126;2023-03-22T00:36:05;100179.00;;;15.50
9119;BMP180;4594;50.994;7.126;2023-03-22T00:38:31;100174.00;;;15.50
9119;BMP180;4594;50.994;7.126;2023-03-22T00:41:33;100180.00;;;15.50
9119;BMP180;4594;50.994;7.126;2023-03-22T00:43:58;100169.00;;;15.50
9119;BMP180;4594;50.994;7.126;2023-03-22T00:46:24;100168.00;;;15.50
9119;BMP180;4594;50.994;7.126;2023-03-22T00:48:50;100181.00;;;15.50
9119;BMP180;4594;50.994;7.126;2023-03-22T00:51:16;100159.00;;;15.50
9119;BMP180;4594;50.994;7.126;2023-03-22T00:53:43;100167.00;;;15.50
9119;BMP180;4594;50.994;7.126;2023-03-22T00:56:10;100154.00;;;15.50
9119;BMP180;4594;50.994;7.126;2023-03-22T00:58:38;100149.00;;;15.50
9119;BMP180;4594;50.994;7.126;2023-03-22T01:01:04;100159.00;;;15.50
9119;BMP180;4594;50.994;7.126;2023-03-22T01:03:29;100145.00;;;15.50
9119;BMP180;4594;50.994;7.126;2023-03-22T01:05:55;100122.00;;;15.50
9119;BMP180;4594;50.994;7.126;2023-03-22T01:08:22;100147.00;;;15.50
9119;BMP180;4594;50.994;7.126;2023-03-22T01:10:49;100143.00;;;15.50
9119;BMP180;4594;50.994;7.126;2023-03-22T01:13:15;100146.00;;;15.50
9119;BMP180;4594;50.994;7.126;2023-03-22T01:15:41;100123.00;;;15.50
9119;BMP180;4594;50.994;7.126;2023-03-22T01:18:08;100129.00;;;15.50
9119;BMP180;4594;50.994;7.126;2023-03-22T01:20:34;100145.00;;;15.40
9119;BMP180;4594;50.994;7.126;2023-03-22T01:23:01;100131.00;;;15.40
9119;BMP180;4594;50.994;7.126;2023-03-22T01:25:26;100132.00;;;15.40
9119;BMP180;4594;50.994;7.126;2023-03-22T01:27:52;100137.00;;;15.40
9119;BMP180;4594;50.994;7.126;2023-03-22T01:30:18;100144.00;;;15.30
9119;BMP180;4594;50.994;7.126;2023-03-22T01:32:44;100136.00;;;15.30
9119;BMP180;4594;50.994;7.126;2023-03-22T01:35:10;100131.00;;;15.30
9119;BMP180;4594;50.994;7.126;2023-03-22T01:37:35;100126.00;;;15.30
9119;BMP180;4594;50.994;7.126;2023-03-22T01:40:01;100123.00;;;15.30
9119;BMP180;4594;50.994;7.126;2023-03-22T01:42:29;100109.00;;;15.40
9119;BMP180;4594;50.994;7.126;2023-03-22T01:47:56;100114.00;;;15.40
9119;BMP180;4594;50.994;7.126;2023-03-22T01:50:24;100115.00;;;15.40
9119;BMP180;4594;50.994;7.126;2023-03-22T01:52:52;100124.00;;;15.40
9119;BMP180;4594;50.994;7.126;2023-03-22T01:55:18;100104.00;;;15.50
9119;BMP180;4594;50.994;7.126;2023-03-22T01:57:48;100110.00;;;15.50
9119;BMP180;4594;50.994;7.126;2023-03-22T02:00:15;100113.00;;;15.50
9119;BMP180;4594;50.994;7.126;2023-03-22T02:02:48;100078.00;;;15.50
9119;BMP180;4594;50.994;7.126;2023-03-22T02:05:16;100102.00;;;15.50
9119;BMP180;4594;50.994;7.126;2023-03-22T02:07:43;100085.00;;;15.50
9119;BMP180;4594;50.994;7.126;2023-03-22T02:10:21;100099.00;;;15.50
9119;BMP180;4594;50.994;7.126;2023-03-22T02:22:20;100091.00;;;15.40
9119;BMP180;4594;50.994;7.126;2023-03-22T02:31:01;100077.00;;;15.40
9119;BMP180;4594;50.994;7.126;2023-03-22T02:36:53;100067.00;;;15.40
9119;BMP180;4594;50.994;7.126;2023-03-22T02:39:58;100079.00;;;15.40
9119;BMP180;4594;50.994;7.126;2023-03-22T02:42:43;100052.00;;;15.40
9119;BMP180;4594;50.994;7.126;2023-03-22T02:45:31;100032.00;;;15.40
9119;BMP180;4594;50.994;7.126;2023-03-22T02:48:16;100068.00;;;15.40
9119;BMP180;4594;50.994;7.126;2023-03-22T02:51:12;100057.00;;;15.40
9119;BMP180;4594;50.994;7.126;2023-03-22T02:53:56;100061.00;;;15.40
9119;BMP180;4594;50.994;7.126;2023-03-22T02:56:36;100057.00;;;15.40
9119;BMP180;4594;50.994;7.126;2023-03-22T02:59:07;100051.00;;;15.40
9119;BMP180;4594;50.994;7.126;2023-03-22T03:01:48;100037.00;;;15.30
9119;BMP180;4594;50.994;7.126;2023-03-22T03:04:29;100035.00;;;15.30
9119;BMP180;4594;50.994;7.126;2023-03-22T03:07:02;100026.00;;;15.30
9119;BMP180;4594;50.994;7.126;2023-03-22T03:09:30;100041.00;;;15.30
9119;BMP180;4594;50.994;7.126;2023-03-22T03:11:56;100036.00;;;15.20
9119;BMP180;4594;50.994;7.126;2023-03-22T03:14:31;100031.00;;;15.20
9119;BMP180;4594;50.994;7.126;2023-03-22T03:17:28;100035.00;;;15.10
9119;BMP180;4594;50.994;7.126;2023-03-22T03:20:20;100016.00;;;15.10
9119;BMP180;4594;50.994;7.126;2023-03-22T03:31:05;100027.00;;;14.90
9119;BMP180;4594;50.994;7.126;2023-03-22T03:33:36;100026.00;;;14.90
9119;BMP180;4594;50.994;7.126;2023-03-22T03:36:10;100004.00;;;14.80
9119;BMP180;4594;50.994;7.126;2023-03-22T03:38:44;100028.00;;;14.80
9119;BMP180;4594;50.994;7.126;2023-03-22T03:41:16;100024.00;;;14.80
9119;BMP180;4594;50.994;7.126;2023-03-22T03:43:44;100009.00;;;14.70
9119;BMP180;4594;50.994;7.126;2023-03-22T03:46:11;99999.00;;;14.70
9119;BMP180;4594;50.994;7.126;2023-03-22T03:48:40;100009.00;;;14.60
9119;BMP180;4594;50.994;7.126;2023-03-22T03:51:07;100011.00;;;14.60
9119;BMP180;4594;50.994;7.126;2023-03-22T03:53:32;99998.00;;;14.60
9119;BMP180;4594;50.994;7.126;2023-03-22T03:55:58;99987.00;;;14.50
9119;BMP180;4594;50.994;7.126;2023-03-22T03:58:24;100013.00;;;14.50
9119;BMP180;4594;50.994;7.126;2023-03-22T04:00:50;100008.00;;;14.50
9119;BMP180;4594;50.994;7.126;2023-03-22T04:03:16;100025.00;;;14.40
9119;BMP180;4594;50.994;7.126;2023-03-22T04:05:42;100008.00;;;14.40
9119;BMP180;4594;50.994;7.126;2023-03-22T04:08:08;100006.00;;;14.40
9119;BMP180;4594;50.994;7.126;2023-03-22T04:10:34;100005.00;;;14.40
9119;BMP180;4594;50.994;7.126;2023-03-22T04:13:00;100035.00;;;14.40
9119;BMP180;4594;50.994;7.126;2023-03-22T04:15:26;100028.00;;;14.40
9119;BMP180;4594;50.994;7.126;2023-03-22T04:17:51;100034.00;;;14.40
9119;BMP180;4594;50.994;7.126;2023-03-22T04:20:18;100017.00;;;14.40
9119;BMP180;4594;50.994;7.126;2023-03-22T04:22:45;100024.00;;;14.40
9119;BMP180;4594;50.994;7.126;2023-03-22T04:25:14;100023.00;;;14.30
9119;BMP180;4594;50.994;7.126;2023-03-22T04:27:45;100041.00;;;14.30
9119;BMP180;4594;50.994;7.126;2023-03-22T04:30:14;100024.00;;;14.20
9119;BMP180;4594;50.994;7.126;2023-03-22T04:32:47;100027.00;;;14.20
9119;BMP180;4594;50.994;7.126;2023-03-22T04:35:14;100017.00;;;14.20
9119;BMP180;4594;50.994;7.126;2023-03-22T04:37:40;100027.00;;;14.20
9119;BMP180;4594;50.994;7.126;2023-03-22T04:40:09;100029.00;;;14.20
9119;BMP180;4594;50.994;7.126;2023-03-22T04:42:40;100029.00;;;14.20
9119;BMP180;4594;50.994;7.126;2023-03-22T04:45:07;100013.00;;;14.10
9119;BMP180;4594;50.994;7.126;2023-03-22T04:47:32;100021.00;;;14.10
9119;BMP180;4594;50.994;7.126;2023-03-22T04:49:58;100017.00;;;14.10
9119;BMP180;4594;50.994;7.126;2023-03-22T04:52:24;100009.00;;;14.10
9119;BMP180;4594;50.994;7.126;2023-03-22T04:54:50;100014.00;;;14.10
9119;BMP180;4594;50.994;7.126;2023-03-22T04:57:15;100007.00;;;14.00
9119;BMP180;4594;50.994;7.126;2023-03-22T04:59:41;100005.00;;;14.00
9119;BMP180;4594;50.994;7.126;2023-03-22T05:02:07;100003.00;;;14.00
9119;BMP180;4594;50.994;7.126;2023-03-22T05:04:32;99989.00;;;13.90
9119;BMP180;4594;50.994;7.126;2023-03-22T05:06:58;99993.00;;;13.90
9119;BMP180;4594;50.994;7.126;2023-03-22T05:09:24;99986.00;;;13.90
9119;BMP180;4594;50.994;7.126;2023-03-22T05:11:49;100004.00;;;13.90
9119;BMP180;4594;50.994;7.126;2023-03-22T05:14:15;99996.00;;;13.90
9119;BMP180;4594;50.994;7.126;2023-03-22T05:16:41;100005.00;;;13.90
9119;BMP180;4594;50.994;7.126;2023-03-22T05:19:08;100009.00;;;13.90
9119;BMP180;4594;50.994;7.126;2023-03-22T05:21:40;100019.00;;;13.90
9119;BMP180;4594;50.994;7.126;2023-03-22T05:24:07;100003.00;;;13.90
9119;BMP180;4594;50.994;7.126;2023-03-22T05:26:33;99973.00;;;13.90
9119;BMP180;4594;50.994;7.126;2023-03-22T05:29:03;99975.00;;;13.90
9119;BMP180;4594;50.994;7.126;2023-03-22T05:31:29;99985.00;;;13.90
9119;BMP180;4594;50.994;7.126;2023-03-22T05:33:59;99984.00;;;14.00
9119;BMP180;4594;50.994;7.126;2023-03-22T05:36:26;99992.00;;;14.00
9119;BMP180;4594;50.994;7.126;2023-03-22T05:38:55;99971.00;;;14.00
9119;BMP180;4594;50.994;7.126;2023-03-22T05:41:21;99990.00;;;14.00
9119;BMP180;4594;50.994;7.126;2023-03-22T05:43:47;99990.00;;;14.10
9119;BMP180;4594;50.994;7.126;2023-03-22T05:46:13;99996.00;;;14.10
9119;BMP180;4594;50.994;7.126;2023-03-22T05:48:39;100002.00;;;14.10
9119;BMP180;4594;50.994;7.126;2023-03-22T05:51:12;99998.00;;;14.20
9119;BMP180;4594;50.994;7.126;2023-03-22T05:53:46;100009.00;;;14.30
9119;BMP180;4594;50.994;7.126;2023-03-22T05:56:14;100004.00;;;14.40
9119;BMP180;4594;50.994;7.126;2023-03-22T05:58:40;100008.00;;;14.50
9119;BMP180;4594;50.994;7.126;2023-03-22T06:01:10;100007.00;;;14.60
9119;BMP180;4594;50.994;7.126;2023-03-22T06:03:37;99999.00;;;14.70
9119;BMP180;4594;50.994;7.126;2023-03-22T06:06:05;100018.00;;;14.90
9119;BMP180;4594;50.994;7.126;2023-03-22T06:08:40;100010.00;;;15.00
9119;BMP180;4594;50.994;7.126;2023-03-22T06:11:07;100011.00;;;15.10
9119;BMP180;4594;50.994;7.126;2023-03-22T06:13:33;100001.00;;;15.20
9119;BMP180;4594;50.994;7.126;2023-03-22T06:16:03;100000.00;;;15.30
9119;BMP180;4594;50.994;7.126;2023-03-22T06:18:30;100003.00;;;15.40
9119;BMP180;4594;50.994;7.126;2023-03-22T06:20:57;100005.00;;;15.40
9119;BMP180;4594;50.994;7.126;2023-03-22T06:23:23;100013.00;;;15.50
9119;BMP180;4594;50.994;7.126;2023-03-22T06:25:49;99996.00;;;15.60
9119;BMP180;4594;50.994;7.126;2023-03-22T06:28:15;100003.00;;;15.70
9119;BMP180;4594;50.994;7.126;2023-03-22T06:30:41;100014.00;;;15.70
9119;BMP180;4594;50.994;7.126;2023-03-22T06:33:06;100001.00;;;15.80
9119;BMP180;4594;50.994;7.126;2023-03-22T06:35:33;100011.00;;;15.90
9119;BMP180;4594;50.994;7.126;2023-03-22T06:37:59;100009.00;;;16.00
9119;BMP180;4594;50.994;7.126;2023-03-22T06:40:26;100013.00;;;16.00
9119;BMP180;4594;50.994;7.126;2023-03-22T06:42:52;100010.00;;;16.10
9119;BMP180;4594;50.994;7.126;2023-03-22T06:45:21;100000.00;;;16.10
9119;BMP180;4594;50.994;7.126;2023-03-22T06:47:47;99999.00;;;16.20
9119;BMP180;4594;50.994;7.126;2023-03-22T06:50:14;100013.00;;;16.20
9119;BMP180;4594;50.994;7.126;2023-03-22T06:52:40;100022.00;;;16.20
9119;BMP180;4594;50.994;7.126;2023-03-22T06:55:07;100008.00;;;16.30
9119;BMP180;4594;50.994;7.126;2023-03-22T06:57:32;100004.00;;;16.40
9119;BMP180;4594;50.994;7.126;2023-03-22T06:59:58;100017.00;;;16.40
9119;BMP180;4594;50.994;7.126;2023-03-22T07:02:24;99997.00;;;16.50
9119;BMP180;4594;50.994;7.126;2023-03-22T07:04:50;100011.00;;;16.60
9119;BMP180;4594;50.994;7.126;2023-03-22T07:07:16;100015.00;;;16.70
9119;BMP180;4594;50.994;7.126;2023-03-22T07:09:41;100008.00;;;16.70
9119;BMP180;4594;50.994;7.126;2023-03-22T07:12:07;100001.00;;;16.80
9119;BMP180;4594;50.994;7.126;2023-03-22T07:14:34;100009.00;;;16.90
9119;BMP180;4594;50.994;7.126;2023-03-22T07:17:00;100004.00;;;17.20
9119;BMP180;4594;50.994;7.126;2023-03-22T07:19:25;100003.00;;;17.30
9119;BMP180;4594;50.994;7.126;2023-03-22T07:21:52;100005.00;;;17.30
9119;BMP180;4594;50.994;7.126;2023-03-22T07:24:17;100000.00;;;17.30
9119;BMP180;4594;50.994;7.126;2023-03-22T07:26:46;99984.00;;;17.40
9119;BMP180;4594;50.994;7.126;2023-03-22T07:29:12;100001.00;;;17.50
9119;BMP180;4594;50.994;7.126;2023-03-22T07:31:37;99997.00;;;17.60
9119;BMP180;4594;50.994;7.126;2023-03-22T07:34:04;99993.00;;;17.80
9119;BMP180;4594;50.994;7.126;2023-03-22T07:36:31;99988.00;;;18.00
9119;BMP180;4594;50.994;7.126;2023-03-22T07:38:56;99988.00;;;18.40
9119;BMP180;4594;50.994;7.126;2023-03-22T07:41:22;99976.00;;;18.80
9119;BMP180;4594;50.994;7.126;2023-03-22T07:43:49;99980.00;;;19.00
9119;BMP180;4594;50.994;7.126;2023-03-22T07:46:15;99970.00;;;19.20
9119;BMP180;4594;50.994;7.126;2023-03-22T07:48:41;99960.00;;;19.40
9119;BMP180;4594;50.994;7.126;2023-03-22T07:51:07;99971.00;;;19.90
9119;BMP180;4594;50.994;7.126;2023-03-22T07:53:33;99963.00;;;20.70
9119;BMP180;4594;50.994;7.126;2023-03-22T07:56:02;99978.00;;;21.20
9119;BMP180;4594;50.994;7.126;2023-03-22T07:58:29;99982.00;;;21.60
9119;BMP180;4594;50.994;7.126;2023-03-22T08:00:55;99976.00;;;21.90
9119;BMP180;4594;50.994;7.126;2023-03-22T08:03:20;99976.00;;;22.10
9119;BMP180;4594;50.994;7.126;2023-03-22T08:05:46;99976.00;;;22.10
9119;BMP180;4594;50.994;7.126;2023-03-22T08:08:13;99968.00;;;22.00
9119;BMP180;4594;50.994;7.126;2023-03-22T08:10:39;99967.00;;;21.90
9119;BMP180;4594;50.994;7.126;2023-03-22T08:13:04;99972.00;;;21.80
9119;BMP180;4594;50.994;7.126;2023-03-22T08:15:30;99973.00;;;21.70
9119;BMP180;4594;50.994;7.126;2023-03-22T08:17:56;99966.00;;;21.70
9119;BMP180;4594;50.994;7.126;2023-03-22T08:20:24;99969.00;;;21.70
9119;BMP180;4594;50.994;7.126;2023-03-22T08:22:52;99966.00;;;22.00
9119;BMP180;4594;50.994;7.126;2023-03-22T08:25:19;99960.00;;;22.40
9119;BMP180;4594;50.994;7.126;2023-03-22T08:27:45;99959.00;;;22.90
9119;BMP180;4594;50.994;7.126;2023-03-22T08:30:12;99945.00;;;23.60
9119;BMP180;4594;50.994;7.126;2023-03-22T08:32:38;99952.00;;;24.20
9119;BMP180;4594;50.994;7.126;2023-03-22T08:35:06;99959.00;;;24.80
9119;BMP180;4594;50.994;7.126;2023-03-22T08:37:32;99961.00;;;25.40
9119;BMP180;4594;50.994;7.126;2023-03-22T08:39:57;99946.00;;;25.80
9119;BMP180;4594;50.994;7.126;2023-03-22T08:42:23;99955.00;;;26.40
9119;BMP180;4594;50.994;7.126;2023-03-22T08:44:49;99961.00;;;26.60
9119;BMP180;4594;50.994;7.126;2023-03-22T08:47:16;99960.00;;;26.90
9119;BMP180;4594;50.994;7.126;2023-03-22T08:49:42;99969.00;;;27.10
9119;BMP180;4594;50.994;7.126;2023-03-22T08:52:07;99970.00;;;27.00
9119;BMP180;4594;50.994;7.126;2023-03-22T08:54:33;99959.00;;;27.00
9119;BMP180;4594;50.994;7.126;2023-03-22T08:56:59;99978.00;;;27.30
9119;BMP180;4594;50.994;7.126;2023-03-22T08:59:27;99974.00;;;27.70
9119;BMP180;4594;50.994;7.126;2023-03-22T09:01:53;99968.00;;;28.00
9119;BMP180;4594;50.994;7.126;2023-03-22T09:04:19;99975.00;;;28.20
9119;BMP180;4594;50.994;7.126;2023-03-22T09:06:44;99979.00;;;28.20
9119;BMP180;4594;50.994;7.126;2023-03-22T09:09:11;99978.00;;;28.20
9119;BMP180;4594;50.994;7.126;2023-03-22T09:11:37;99982.00;;;28.40
9119;BMP180;4594;50.994;7.126;2023-03-22T09:14:05;99973.00;;;28.70
9119;BMP180;4594;50.994;7.126;2023-03-22T09:16:30;99968.00;;;28.60
9119;BMP180;4594;50.994;7.126;2023-03-22T09:18:56;99977.00;;;28.50
9119;BMP180;4594;50.994;7.126;2023-03-22T09:21:22;99972.00;;;28.30
9119;BMP180;4594;50.994;7.126;2023-03-22T09:23:48;99969.00;;;28.10
9119;BMP180;4594;50.994;7.126;2023-03-22T09:26:14;99981.00;;;28.00
9119;BMP180;4594;50.994;7.126;2023-03-22T09:28:40;99978.00;;;28.00
9119;BMP180;4594;50.994;7.126;2023-03-22T09:31:08;99973.00;;;28.10
9119;BMP180;4594;50.994;7.126;2023-03-22T09:33:37;99958.00;;;28.40
9119;BMP180;4594;50.994;7.126;2023-03-22T09:36:03;99965.00;;;28.70
9119;BMP180;4594;50.994;7.126;2023-03-22T09:38:29;99954.00;;;29.10
9119;BMP180;4594;50.994;7.126;2023-03-22T09:41:10;99957.00;;;29.90
9119;BMP180;4594;50.994;7.126;2023-03-22T09:43:41;99952.00;;;30.60
9119;BMP180;4594;50.994;7.126;2023-03-22T09:46:16;99967.00;;;31.30
9119;BMP180;4594;50.994;7.126;2023-03-22T09:48:46;99965.00;;;31.90
9119;BMP180;4594;50.994;7.126;2023-03-22T09:51:40;99963.00;;;32.70
9119;BMP180;4594;50.994;7.126;2023-03-22T09:54:36;99962.00;;;33.50
9119;BMP180;4594;50.994;7.126;2023-03-22T10:00:24;99943.00;;;34.60
9119;BMP180;4594;50.994;7.126;2023-03-22T10:03:18;99967.00;;;34.80
9119;BMP180;4594;50.994;7.126;2023-03-22T10:05:59;99972.00;;;34.50
9119;BMP180;4594;50.994;7.126;2023-03-22T10:16:55;99967.00;;;32.50
9119;BMP180;4594;50.994;7.126;2023-03-22T10:19:43;99967.00;;;32.30
9119;BMP180;4594;50.994;7.126;2023-03-22T10:22:17;99962.00;;;32.00
9119;BMP180;4594;50.994;7.126;2023-03-22T10:24:48;99960.00;;;31.60
9119;BMP180;4594;50.994;7.126;2023-03-22T10:27:19;99956.00;;;31.70
9119;BMP180;4594;50.994;7.126;2023-03-22T10:29:52;99963.00;;;31.60
9119;BMP180;4594;50.994;7.126;2023-03-22T10:32:29;99963.00;;;31.60
9119;BMP180;4594;50.994;7.126;2023-03-22T10:34:56;99965.00;;;31.40
9119;BMP180;4594;50.994;7.126;2023-03-22T10:37:32;99970.00;;;31.30
9119;BMP180;4594;50.994;7.126;2023-03-22T10:40:02;99962.00;;;31.20
9119;BMP180;4594;50.994;7.126;2023-03-22T10:42:35;99959.00;;;30.90
9119;BMP180;4594;50.994;7.126;2023-03-22T10:45:13;99958.00;;;30.70
9119;BMP180;4594;50.994;7.126;2023-03-22T10:47:53;99964.00;;;30.40
9119;BMP180;4594;50.994;7.126;2023-03-22T10:50:29;99963.00;;;30.20
9119;BMP180;4594;50.994;7.126;2023-03-22T10:53:10;99967.00;;;29.80
9119;BMP180;4594;50.994;7.126;2023-03-22T10:55:42;99957.00;;;29.50
9119;BMP180;4594;50.994;7.126;2023-03-22T10:58:28;99964.00;;;29.20
9119;BMP180;4594;50.994;7.126;2023-03-22T11:00:59;99968.00;;;28.90
9119;BMP180;4594;50.994;7.126;2023-03-22T11:03:48;99977.00;;;28.60
9119;BMP180;4594;50.994;7.126;2023-03-22T11:08:53;99966.00;;;28.00
9119;BMP180;4594;50.994;7.126;2023-03-22T11:11:29;99969.00;;;27.80
9119;BMP180;4594;50.994;7.126;2023-03-22T11:14:03;99973.00;;;27.50
9119;BMP180;4594;50.994;7.126;2023-03-22T11:16:31;99975.00;;;27.20
9119;BMP180;4594;50.994;7.126;2023-03-22T11:19:00;99972.00;;;27.00
9119;BMP180;4594;50.994;7.126;2023-03-22T11:21:32;99966.00;;;26.80
9119;BMP180;4594;50.994;7.126;2023-03-22T11:24:06;99965.00;;;26.60
9119;BMP180;4594;50.994;7.126;2023-03-22T11:26:36;99963.00;;;26.40
9119;BMP180;4594;50.994;7.126;2023-03-22T11:29:16;99983.00;;;26.20
9119;BMP180;4594;50.994;7.126;2023-03-22T11:31:56;99980.00;;;25.90
9119;BMP180;4594;50.994;7.126;2023-03-22T11:34:29;99968.00;;;25.80
9119;BMP180;4594;50.994;7.126;2023-03-22T11:36:59;99964.00;;;25.60
9119;BMP180;4594;50.994;7.126;2023-03-22T11:39:27;99977.00;;;25.40
9119;BMP180;4594;50.994;7.126;2023-03-22T11:41:57;99966.00;;;25.20
9119;BMP180;4594;50.994;7.126;2023-03-22T11:44:27;99959.00;;;25.10
9119;BMP180;4594;50.994;7.126;2023-03-22T11:47:00;99968.00;;;25.00
9119;BMP180;4594;50.994;7.126;2023-03-22T11:52:17;99965.00;;;24.70
9119;BMP180;4594;50.994;7.126;2023-03-22T11:54:46;99953.00;;;24.70
9119;BMP180;4594;50.994;7.126;2023-03-22T11:57:28;99957.00;;;24.60
9119;BMP180;4594;50.994;7.126;2023-03-22T12:00:20;99965.00;;;24.50
9119;BMP180;4594;50.994;7.126;2023-03-22T12:02:56;99943.00;;;24.40
9119;BMP180;4594;50.994;7.126;2023-03-22T12:05:27;99943.00;;;24.30
9119;BMP180;4594;50.994;7.126;2023-03-22T12:10:37;99948.00;;;24.10
9119;BMP180;4594;50.994;7.126;2023-03-22T12:13:17;99951.00;;;24.00
9119;BMP180;4594;50.994;7.126;2023-03-22T12:15:50;99937.00;;;23.90
9119;BMP180;4594;50.994;7.126;2023-03-22T12:18:53;99947.00;;;23.70
9119;BMP180;4594;50.994;7.126;2023-03-22T12:21:22;99946.00;;;23.50
9119;BMP180;4594;50.994;7.126;2023-03-22T12:23:48;99943.00;;;23.40
9119;BMP180;4594;50.994;7.126;2023-03-22T12:26:26;99954.00;;;23.10
9119;BMP180;4594;50.994;7.126;2023-03-22T12:28:59;99945.00;;;22.90
9119;BMP180;4594;50.994;7.126;2023-03-22T12:31:37;99937.00;;;22.80
9119;BMP180;4594;50.994;7.126;2023-03-22T12:34:13;99937.00;;;22.60
9119;BMP180;4594;50.994;7.126;2023-03-22T12:36:53;99935.00;;;22.50
9119;BMP180;4594;50.994;7.126;2023-03-22T12:39:52;99932.00;;;22.30
9119;BMP180;4594;50.994;7.126;2023-03-22T12:42:36;99903.00;;;22.20
9119;BMP180;4594;50.994;7.126;2023-03-22T12:45:21;99932.00;;;22.10
9119;BMP180;4594;50.994;7.126;2023-03-22T12:48:05;99926.00;;;22.00
9119;BMP180;4594;50.994;7.126;2023-03-22T12:50:47;99937.00;;;21.90
9119;BMP180;4594;50.994;7.126;2023-03-22T12:53:17;99938.00;;;21.80
9119;BMP180;4594;50.994;7.126;2023-03-22T12:55:46;99938.00;;;21.70
9119;BMP180;4594;50.994;7.126;2023-03-22T12:58:19;99925.00;;;21.60
9119;BMP180;4594;50.994;7.126;2023-03-22T13:01:21;99944.00;;;21.50
9119;BMP180;4594;50.994;7.126;2023-03-22T13:03:51;99940.00;;;21.30
9119;BMP180;4594;50.994;7.126;2023-03-22T13:06:33;99929.00;;;21.20
9119;BMP180;4594;50.994;7.126;2023-03-22T13:27:54;99936.00;;;20.60
9119;BMP180;4594;50.994;7.126;2023-03-22T13:33:20;99944.00;;;20.50
9119;BMP180;4594;50.994;7.126;2023-03-22T13:35:59;99941.00;;;20.50
9119;BMP180;4594;50.994;7.126;2023-03-22T13:38:41;99930.00;;;20.50
9119;BMP180;4594;50.994;7.126;2023-03-22T13:41:30;99926.00;;;20.40
9119;BMP180;4594;50.994;7.126;2023-03-22T13:44:01;99926.00;;;20.40
9119;BMP180;4594;50.994;7.126;2023-03-22T13:46:44;99920.00;;;20.40
9119;BMP180;4594;50.994;7.126;2023-03-22T13:51:43;99903.00;;;20.40
9119;BMP180;4594;50.994;7.126;2023-03-22T14:04:47;99875.00;;;20.40
9119;BMP180;4594;50.994;7.126;2023-03-22T14:07:32;99890.00;;;20.40
9119;BMP180;4594;50.994;7.126;2023-03-22T14:10:11;99877.00;;;20.40
9119;BMP180;4594;50.994;7.126;2023-03-22T14:12:51;99881.00;;;20.40
9119;BMP180;4594;50.994;7.126;2023-03-22T14:15:24;99885.00;;;20.40
9119;BMP180;4594;50.994;7.126;2023-03-22T14:18:07;99887.00;;;20.30
9119;BMP180;4594;50.994;7.126;2023-03-22T14:20:37;99885.00;;;20.30
9119;BMP180;4594;50.994;7.126;2023-03-22T14:26:21;99887.00;;;20.20
9119;BMP180;4594;50.994;7.126;2023-03-22T14:28:49;99882.00;;;20.20
9119;BMP180;4594;50.994;7.126;2023-03-22T14:31:28;99883.00;;;20.10
9119;BMP180;4594;50.994;7.126;2023-03-22T14:33:59;99885.00;;;20.10
9119;BMP180;4594;50.994;7.126;2023-03-22T14:36:29;99880.00;;;20.10
9119;BMP180;4594;50.994;7.126;2023-03-22T14:39:06;99876.00;;;20.10
9119;BMP180;4594;50.994;7.126;2023-03-22T14:41:36;99882.00;;;20.10
9119;BMP180;4594;50.994;7.126;2023-03-22T14:44:02;99865.00;;;20.10
9119;BMP180;4594;50.994;7.126;2023-03-22T14:46:36;99889.00;;;20.10
9119;BMP180;4594;50.994;7.126;2023-03-22T14:49:16;99893.00;;;20.10
9119;BMP180;4594;50.994;7.126;2023-03-22T14:51:46;99878.00;;;20.00
9119;BMP180;4594;50.994;7.126;2023-03-22T14:54:19;99875.00;;;20.00
9119;BMP180;4594;50.994;7.126;2023-03-22T14:56:47;99882.00;;;20.00
9119;BMP180;4594;50.994;7.126;2023-03-22T14:59:17;99883.00;;;19.90
9119;BMP180;4594;50.994;7.126;2023-03-22T15:01:55;99872.00;;;19.90
9119;BMP180;4594;50.994;7.126;2023-03-22T15:04:23;99864.00;;;19.90
9119;BMP180;4594;50.994;7.126;2023-03-22T15:06:56;99889.00;;;19.90
9119;BMP180;4594;50.994;7.126;2023-03-22T15:09:23;99881.00;;;19.80
9119;BMP180;4594;50.994;7.126;2023-03-22T15:11:54;99856.00;;;19.80
9119;BMP180;4594;50.994;7.126;2023-03-22T15:14:21;99873.00;;;19.80
9119;BMP180;4594;50.994;7.126;2023-03-22T15:16:48;99873.00;;;19.80
9119;BMP180;4594;50.994;7.126;2023-03-22T15:19:21;99877.00;;;19.80
9119;BMP180;4594;50.994;7.126;2023-03-22T15:22:23;99865.00;;;19.80
9119;BMP180;4594;50.994;7.126;2023-03-22T15:25:01;99867.00;;;19.80
9119;BMP180;4594;50.994;7.126;2023-03-22T15:27:29;99871.00;;;19.80
9119;BMP180;4594;50.994;7.126;2023-03-22T15:29:58;99864.00;;;19.80
9119;BMP180;4594;50.994;7.126;2023-03-22T15:32:25;99849.00;;;19.80
9119;BMP180;4594;50.994;7.126;2023-03-22T15:34:53;99858.00;;;19.80
9119;BMP180;4594;50.994;7.126;2023-03-22T15:37:32;99834.00;;;19.80
9119;BMP180;4594;50.994;7.126;2023-03-22T15:39:59;99839.00;;;19.80
9119;BMP180;4594;50.994;7.126;2023-03-22T15:42:31;99835.00;;;19.80
9119;BMP180;4594;50.994;7.126;2023-03-22T15:45:19;99857.00;;;19.70
9119;BMP180;4594;50.994;7.126;2023-03-22T15:47:53;99825.00;;;19.80
9119;BMP180;4594;50.994;7.126;2023-03-22T15:50:27;99840.00;;;19.80
9119;BMP180;4594;50.994;7.126;2023-03-22T15:52:57;99840.00;;;19.80
9119;BMP180;4594;50.994;7.126;2023-03-22T15:55:34;99840.00;;;19.80
9119;BMP180;4594;50.994;7.126;2023-03-22T15:58:06;99828.00;;;19.80
9119;BMP180;4594;50.994;7.126;2023-03-22T16:00:41;99819.00;;;19.80
9119;BMP180;4594;50.994;7.126;2023-03-22T16:05:37;99822.00;;;19.90
9119;BMP180;4594;50.994;7.126;2023-03-22T16:08:04;99834.00;;;19.90
9119;BMP180;4594;50.994;7.126;2023-03-22T16:10:33;99838.00;;;19.90
9119;BMP180;4594;50.994;7.126;2023-03-22T16:13:00;99832.00;;;19.90
9119;BMP180;4594;50.994;7.126;2023-03-22T16:15:32;99825.00;;;19.80
9119;BMP180;4594;50.994;7.126;2023-03-22T16:17:59;99836.00;;;19.90
9119;BMP180;4594;50.994;7.126;2023-03-22T16:20:27;99845.00;;;19.90